createdAt,value
2022-08-22T00:00:54.439Z,20.30
2022-08-22T00:03:26.163Z,20.20
2022-08-22T00:06:12.694Z,20.20
2022-08-22T00:08:48.576Z,20.20
2022-08-22T00:11:46.183Z,20.30
2022-08-22T00:14:31.739Z,20.30
2022-08-22T00:17:19.145Z,20.30
2022-08-22T00:19:54.781Z,20.30
2022-08-22T00:22:35.512Z,20.30
2022-08-22T00:25:28.515Z,20.30
2022-08-22T00:28:18.599Z,20.30
2022-08-22T00:31:22.853Z,20.20
2022-08-22T00:34:09.723Z,20.20
2022-08-22T00:36:51.021Z,20.20
2022-08-22T00:39:30.841Z,20.20
2022-08-22T00:42:35.165Z,20.10
2022-08-22T00:45:28.471Z,20.10
2022-08-22T00:48:46.886Z,20.00
2022-08-22T00:51:49.241Z,20.00
2022-08-22T00:55:00.891Z,20.00
2022-08-22T00:57:55.496Z,19.90
2022-08-22T01:00:26.841Z,20.00
2022-08-22T01:03:26.760Z,19.90
2022-08-22T01:06:47.740Z,19.90
2022-08-22T01:12:51.518Z,19.80
2022-08-22T01:19:14.578Z,19.80
2022-08-22T01:26:17.056Z,19.70
2022-08-22T01:30:01.622Z,19.70
2022-08-22T01:38:19.486Z,19.70
2022-08-22T01:41:18.588Z,19.70
2022-08-22T01:44:00.653Z,19.70
2022-08-22T01:46:54.200Z,19.70
2022-08-22T01:49:37.265Z,19.70
2022-08-22T01:52:19.467Z,19.80
2022-08-22T01:55:27.023Z,19.80
2022-08-22T01:58:19.694Z,19.90
2022-08-22T02:00:58.499Z,19.80
2022-08-22T02:03:27.970Z,19.80
2022-08-22T02:06:06.373Z,19.80
2022-08-22T02:08:54.160Z,19.80
2022-08-22T02:11:42.867Z,19.80
2022-08-22T02:24:00.869Z,19.80
2022-08-22T02:27:04.315Z,19.80
2022-08-22T02:37:03.606Z,19.90
2022-08-22T02:43:40.913Z,19.80
2022-08-22T02:52:48.466Z,19.90
2022-08-22T02:59:58.866Z,19.90
2022-08-22T03:03:16.420Z,19.80
2022-08-22T03:27:42.334Z,19.70
2022-08-22T03:41:38.230Z,19.70
2022-08-22T03:44:55.211Z,19.60
2022-08-22T04:04:59.848Z,19.30
2022-08-22T04:12:21.864Z,19.20
2022-08-22T04:15:21.173Z,19.20
2022-08-22T04:18:15.868Z,19.10
2022-08-22T04:21:03.933Z,19.10
2022-08-22T04:24:02.467Z,19.20
2022-08-22T04:26:35.254Z,19.00
2022-08-22T04:29:25.332Z,19.00
2022-08-22T04:33:06.863Z,19.10
2022-08-22T04:39:57.721Z,19.20
2022-08-22T04:46:36.958Z,19.20
2022-08-22T05:07:13.654Z,19.20
2022-08-22T05:13:44.211Z,19.30
2022-08-22T05:18:54.880Z,19.40
2022-08-22T05:21:27.288Z,19.50
2022-08-22T05:32:51.239Z,19.90
2022-08-22T05:43:07.550Z,20.10
2022-08-22T05:45:40.499Z,20.20
2022-08-22T05:48:43.622Z,20.30
2022-08-22T05:51:26.952Z,20.40
2022-08-22T05:54:21.366Z,20.50
2022-08-22T05:57:50.305Z,20.60
2022-08-22T06:00:25.785Z,20.60
2022-08-22T06:03:25.918Z,20.70
2022-08-22T06:06:03.737Z,20.80
2022-08-22T06:08:48.862Z,21.00
2022-08-22T06:11:21.032Z,21.10
2022-08-22T06:14:08.037Z,21.20
2022-08-22T06:16:48.786Z,21.30
2022-08-22T06:19:19.775Z,21.40
2022-08-22T06:21:52.067Z,21.50
2022-08-22T06:24:24.144Z,21.60
2022-08-22T06:26:54.141Z,21.70
2022-08-22T06:29:33.356Z,21.60
2022-08-22T06:32:08.274Z,21.80
2022-08-22T06:34:39.264Z,21.80
2022-08-22T06:37:11.651Z,21.90
2022-08-22T06:39:45.820Z,21.90
2022-08-22T06:42:33.583Z,21.90
2022-08-22T06:45:10.083Z,22.10
2022-08-22T06:47:49.357Z,22.10
2022-08-22T06:50:33.840Z,22.20
2022-08-22T06:53:29.055Z,22.30
2022-08-22T07:03:05.064Z,22.70
2022-08-22T07:05:39.265Z,22.80
2022-08-22T07:08:15.435Z,23.00
2022-08-22T07:10:54.845Z,23.20
2022-08-22T07:13:24.232Z,23.20
2022-08-22T07:16:02.989Z,23.30
2022-08-22T07:21:26.049Z,23.60
2022-08-22T07:23:55.186Z,23.60
2022-08-22T07:26:40.820Z,23.60
2022-08-22T07:29:19.699Z,23.70
2022-08-22T07:32:08.863Z,23.80
2022-08-22T07:35:19.301Z,23.90
2022-08-22T07:38:08.133Z,24.00
2022-08-22T07:41:02.691Z,24.00
2022-08-22T07:43:46.680Z,24.10
2022-08-22T07:46:58.842Z,24.10
2022-08-22T07:49:52.402Z,24.30
2022-08-22T07:52:21.510Z,24.30
2022-08-22T07:55:23.163Z,24.30
2022-08-22T07:58:00.661Z,24.50
2022-08-22T08:00:29.799Z,24.60
2022-08-22T08:03:01.177Z,24.60
2022-08-22T08:05:32.744Z,24.70
2022-08-22T08:08:05.044Z,24.90
2022-08-22T08:10:37.050Z,25.70
2022-08-22T08:13:09.674Z,26.40
2022-08-22T08:15:39.329Z,26.40
2022-08-22T08:18:13.345Z,26.40
2022-08-22T08:20:40.407Z,26.70
2022-08-22T08:23:11.995Z,26.80
2022-08-22T08:26:12.815Z,27.40
2022-08-22T08:28:46.967Z,27.90
2022-08-22T08:31:25.127Z,28.30
2022-08-22T08:34:17.242Z,28.70
2022-08-22T08:36:59.321Z,28.90
2022-08-22T08:39:50.707Z,29.10
2022-08-22T08:43:00.791Z,29.10
2022-08-22T08:45:50.185Z,29.40
2022-08-22T08:48:39.011Z,29.90
2022-08-22T08:51:38.386Z,30.10
2022-08-22T08:54:44.275Z,30.30
2022-08-22T08:57:41.970Z,30.00
2022-08-22T09:00:21.082Z,29.80
2022-08-22T09:03:15.885Z,29.80
2022-08-22T09:06:09.766Z,29.90
2022-08-22T09:11:58.448Z,30.10
2022-08-22T09:14:44.338Z,30.10
2022-08-22T09:17:39.289Z,30.30
2022-08-22T09:20:19.560Z,30.70
2022-08-22T09:22:58.412Z,30.90
2022-08-22T09:25:38.508Z,30.90
2022-08-22T09:28:19.763Z,30.50
2022-08-22T09:30:54.107Z,30.10
2022-08-22T09:33:24.892Z,29.40
2022-08-22T09:36:06.293Z,29.20
2022-08-22T09:38:59.862Z,28.90
2022-08-22T09:41:52.526Z,28.70
2022-08-22T09:44:40.610Z,28.40
2022-08-22T09:47:39.870Z,28.40
2022-08-22T09:50:17.025Z,28.20
2022-08-22T09:53:12.108Z,28.00
2022-08-22T09:56:15.002Z,27.90
2022-08-22T09:59:02.872Z,27.90
2022-08-22T10:01:53.568Z,27.90
2022-08-22T10:04:42.574Z,27.80
2022-08-22T10:07:30.611Z,27.80
2022-08-22T10:09:57.553Z,27.80
2022-08-22T10:12:36.564Z,27.90
2022-08-22T10:15:12.430Z,27.90
2022-08-22T10:18:01.586Z,27.80
2022-08-22T10:20:33.005Z,27.90
2022-08-22T10:23:21.277Z,28.00
2022-08-22T10:25:57.006Z,28.00
2022-08-22T10:28:40.860Z,28.00
2022-08-22T10:31:25.373Z,27.90
2022-08-22T10:34:00.916Z,27.90
2022-08-22T10:36:39.019Z,27.90
2022-08-22T10:39:11.939Z,28.00
2022-08-22T10:41:57.110Z,28.10
2022-08-22T10:44:51.938Z,28.20
2022-08-22T10:47:25.399Z,28.30
2022-08-22T10:50:03.211Z,28.40
2022-08-22T10:52:47.865Z,28.40
2022-08-22T10:55:27.208Z,28.30
2022-08-22T10:58:12.758Z,28.40
2022-08-22T11:00:58.394Z,28.30
2022-08-22T11:03:38.136Z,28.30
2022-08-22T11:06:12.803Z,28.10
2022-08-22T11:09:17.243Z,28.10
2022-08-22T11:12:23.414Z,28.20
2022-08-22T11:15:08.350Z,28.30
2022-08-22T11:18:15.478Z,28.30
2022-08-22T11:21:01.750Z,28.30
2022-08-22T11:23:44.628Z,28.30
2022-08-22T11:26:41.667Z,28.20
2022-08-22T11:29:41.269Z,28.20
2022-08-22T11:32:34.118Z,28.00
2022-08-22T11:35:08.933Z,28.00
2022-08-22T11:37:53.788Z,27.90
2022-08-22T11:40:44.354Z,28.00
2022-08-22T11:43:32.353Z,28.00
2022-08-22T11:46:14.045Z,27.90
2022-08-22T11:49:06.379Z,27.90
2022-08-22T11:51:51.226Z,28.00
2022-08-22T11:54:30.986Z,28.00
2022-08-22T11:57:19.166Z,28.00
2022-08-22T11:59:45.958Z,28.00
2022-08-22T12:02:19.583Z,27.90
2022-08-22T12:04:52.007Z,27.70
2022-08-22T12:07:29.981Z,27.70
2022-08-22T12:10:06.854Z,27.70
2022-08-22T12:13:04.451Z,27.70
2022-08-22T12:15:53.917Z,27.70
2022-08-22T12:18:39.783Z,27.80
2022-08-22T12:21:38.426Z,27.80
2022-08-22T12:24:32.709Z,27.80
2022-08-22T12:27:34.387Z,27.70
2022-08-22T12:30:19.793Z,27.60
2022-08-22T12:32:58.691Z,27.40
2022-08-22T12:35:39.444Z,27.40
2022-08-22T12:38:37.888Z,27.40
2022-08-22T12:41:27.833Z,27.50
2022-08-22T12:44:23.112Z,27.40
2022-08-22T12:47:02.292Z,27.40
2022-08-22T12:49:38.527Z,27.40
2022-08-22T12:52:46.118Z,27.40
2022-08-22T12:55:49.940Z,27.50
2022-08-22T12:58:45.667Z,27.60
2022-08-22T13:01:19.220Z,27.60
2022-08-22T13:04:32.478Z,27.60
2022-08-22T13:07:05.804Z,27.60
2022-08-22T13:09:40.839Z,27.60
2022-08-22T13:12:26.115Z,27.60
2022-08-22T13:15:03.553Z,27.70
2022-08-22T13:17:30.809Z,27.70
2022-08-22T13:20:06.604Z,27.80
2022-08-22T13:22:38.995Z,27.90
2022-08-22T13:25:08.598Z,27.80
2022-08-22T13:28:03.718Z,27.80
2022-08-22T13:30:37.547Z,27.90
2022-08-22T13:33:25.128Z,28.00
2022-08-22T13:36:06.635Z,28.10
2022-08-22T13:38:46.401Z,28.10
2022-08-22T13:41:19.039Z,28.20
2022-08-22T13:44:06.512Z,28.10
2022-08-22T13:46:35.738Z,28.10
2022-08-22T13:49:13.019Z,28.10
2022-08-22T13:52:28.769Z,28.20
2022-08-22T13:55:16.914Z,28.30
2022-08-22T13:58:17.814Z,28.30
2022-08-22T14:01:02.634Z,28.30
2022-08-22T14:03:40.580Z,28.20
2022-08-22T14:06:37.868Z,28.30
2022-08-22T14:09:31.256Z,28.30
2022-08-22T14:12:17.202Z,28.30
2022-08-22T14:14:49.206Z,28.30
2022-08-22T14:17:23.971Z,28.30
2022-08-22T14:20:32.318Z,28.20
2022-08-22T14:23:16.191Z,28.10
2022-08-22T14:25:43.999Z,28.10
2022-08-22T14:28:33.026Z,28.00
2022-08-22T14:31:08.502Z,27.90
2022-08-22T14:33:48.393Z,27.90
2022-08-22T14:36:23.102Z,27.90
2022-08-22T14:39:02.763Z,28.00
2022-08-22T14:41:52.659Z,28.10
2022-08-22T14:44:32.236Z,28.00
2022-08-22T14:47:04.818Z,27.80
2022-08-22T14:49:58.463Z,27.80
2022-08-22T14:52:46.455Z,27.80
2022-08-22T14:55:23.167Z,27.80
2022-08-22T14:58:01.473Z,27.90
2022-08-22T15:00:38.453Z,28.00
2022-08-22T15:03:34.201Z,28.00
2022-08-22T15:06:13.685Z,28.10
2022-08-22T15:08:49.390Z,28.10
2022-08-22T15:11:25.604Z,27.90
2022-08-22T15:13:58.523Z,27.70
2022-08-22T15:16:45.966Z,27.70
2022-08-22T15:19:36.060Z,27.60
2022-08-22T15:22:16.822Z,27.60
2022-08-22T15:25:05.704Z,27.50
2022-08-22T15:28:06.120Z,27.60
2022-08-22T15:30:44.125Z,27.60
2022-08-22T15:33:26.400Z,27.50
2022-08-22T15:36:16.327Z,27.50
2022-08-22T15:38:48.120Z,27.30
2022-08-22T15:41:36.613Z,27.30
2022-08-22T15:44:32.841Z,27.20
2022-08-22T15:47:24.261Z,27.20
2022-08-22T15:50:01.454Z,27.20
2022-08-22T15:52:35.531Z,27.20
2022-08-22T15:55:14.175Z,27.10
2022-08-22T15:57:49.267Z,27.00
2022-08-22T16:00:27.982Z,26.90
2022-08-22T16:03:09.413Z,26.80
2022-08-22T16:06:11.357Z,26.70
2022-08-22T16:08:46.770Z,26.70
2022-08-22T16:11:33.029Z,26.70
2022-08-22T16:14:35.169Z,26.70
2022-08-22T16:17:22.119Z,26.60
2022-08-22T16:19:49.985Z,26.60
2022-08-22T16:22:16.917Z,26.60
2022-08-22T16:24:59.640Z,26.60
2022-08-22T16:27:27.968Z,26.50
2022-08-22T16:30:06.310Z,26.50
2022-08-22T16:32:34.700Z,26.40
2022-08-22T16:35:01.594Z,26.40
2022-08-22T16:37:47.202Z,26.30
2022-08-22T16:40:21.341Z,26.30
2022-08-22T16:43:11.505Z,26.30
2022-08-22T16:45:45.611Z,26.30
2022-08-22T16:48:35.961Z,26.10
2022-08-22T16:51:14.945Z,26.10
2022-08-22T16:54:03.970Z,26.10
2022-08-22T16:56:56.447Z,26.10
2022-08-22T16:59:29.451Z,26.10
2022-08-22T17:02:46.171Z,26.00
2022-08-22T17:05:30.030Z,25.90
2022-08-22T17:08:13.259Z,25.90
2022-08-22T17:11:14.206Z,25.80
2022-08-22T17:14:11.325Z,25.80
2022-08-22T17:16:57.730Z,25.80
2022-08-22T17:19:31.141Z,25.70
2022-08-22T17:22:10.066Z,25.70
2022-08-22T17:24:51.495Z,25.60
2022-08-22T17:27:37.543Z,25.60
2022-08-22T17:30:15.192Z,25.50
2022-08-22T17:32:47.841Z,25.40
2022-08-22T17:35:35.024Z,25.40
2022-08-22T17:38:23.484Z,25.30
2022-08-22T17:41:18.955Z,25.20
2022-08-22T17:43:55.890Z,25.20
2022-08-22T17:47:04.289Z,25.10
2022-08-22T17:49:48.216Z,25.00
2022-08-22T17:52:25.364Z,24.90
2022-08-22T17:55:01.505Z,24.80
2022-08-22T17:57:38.214Z,24.80
2022-08-22T18:00:30.657Z,24.70
2022-08-22T18:03:19.567Z,24.70
2022-08-22T18:05:51.581Z,24.60
2022-08-22T18:08:37.849Z,24.50
2022-08-22T18:11:13.573Z,24.40
2022-08-22T18:14:05.278Z,24.40
2022-08-22T18:16:44.626Z,24.30
2022-08-22T18:19:23.416Z,24.30
2022-08-22T18:21:56.144Z,24.20
2022-08-22T18:24:44.070Z,24.10
2022-08-22T18:27:30.009Z,24.10
2022-08-22T18:30:11.084Z,24.10
2022-08-22T18:32:56.967Z,24.00
2022-08-22T18:35:54.707Z,24.00
2022-08-22T18:38:35.881Z,23.90
2022-08-22T18:41:15.177Z,24.00
2022-08-22T18:43:48.295Z,23.90
2022-08-22T18:46:40.007Z,23.90
2022-08-22T18:49:35.801Z,23.90
2022-08-22T18:52:05.770Z,23.90
2022-08-22T18:54:47.731Z,23.90
2022-08-22T18:57:47.217Z,23.90
2022-08-22T19:00:17.189Z,23.90
2022-08-22T19:03:14.375Z,23.90
2022-08-22T19:06:01.275Z,23.80
2022-08-22T19:09:18.313Z,23.80
2022-08-22T19:12:03.630Z,23.80
2022-08-22T19:14:33.276Z,23.70
2022-08-22T19:17:15.558Z,23.70
2022-08-22T19:20:15.836Z,23.70
2022-08-22T19:22:42.987Z,23.60
2022-08-22T19:25:32.564Z,23.60
2022-08-22T19:28:11.448Z,23.50
2022-08-22T19:30:49.881Z,23.50
2022-08-22T19:33:37.265Z,23.50
2022-08-22T19:36:11.946Z,23.40
2022-08-22T19:39:09.079Z,23.40
2022-08-22T19:41:46.403Z,23.30
2022-08-22T19:44:35.318Z,23.30
2022-08-22T19:47:26.944Z,23.30
2022-08-22T19:50:05.319Z,23.20
2022-08-22T19:53:00.292Z,23.20
2022-08-22T19:55:42.398Z,23.20
2022-08-22T19:58:34.948Z,23.10
2022-08-22T20:01:25.337Z,23.10
2022-08-22T20:04:30.799Z,23.10
2022-08-22T20:07:27.184Z,23.00
2022-08-22T20:10:20.647Z,23.00
2022-08-22T20:13:20.902Z,22.90
2022-08-22T20:16:10.366Z,22.90
2022-08-22T20:19:05.463Z,22.80
2022-08-22T20:22:00.100Z,22.80
2022-08-22T20:24:36.504Z,22.80
2022-08-22T20:27:19.253Z,22.80
2022-08-22T20:29:53.977Z,22.80
2022-08-22T20:32:23.875Z,22.70
2022-08-22T20:34:56.943Z,22.70
2022-08-22T20:37:45.349Z,22.70
2022-08-22T20:40:56.959Z,22.70
2022-08-22T20:43:31.754Z,22.60
2022-08-22T20:46:25.490Z,22.60
2022-08-22T20:48:54.619Z,22.50
2022-08-22T20:54:20.611Z,22.50
2022-08-22T20:56:53.884Z,22.40
2022-08-22T21:04:08.759Z,22.40
2022-08-22T21:07:00.806Z,22.40
2022-08-22T21:09:47.124Z,22.30
2022-08-22T21:12:14.169Z,22.20
2022-08-22T21:14:46.207Z,22.20
2022-08-22T21:17:17.265Z,22.20
2022-08-22T21:19:44.107Z,22.10
2022-08-22T21:22:25.707Z,22.10
2022-08-22T21:24:59.054Z,22.10
2022-08-22T21:27:31.082Z,22.00
2022-08-22T21:30:00.059Z,22.00
2022-08-22T21:32:38.145Z,22.00
2022-08-22T21:35:07.699Z,22.00
2022-08-22T21:37:48.084Z,22.00
2022-08-22T21:40:31.911Z,22.00
2022-08-22T21:43:06.903Z,22.00
2022-08-22T21:45:39.872Z,21.90
2022-08-22T21:48:56.561Z,21.90
2022-08-22T21:51:43.057Z,21.90
2022-08-22T21:54:25.055Z,21.90
2022-08-22T21:56:54.057Z,21.80
2022-08-22T21:59:50.642Z,21.80
2022-08-22T22:02:25.378Z,21.80
2022-08-22T22:04:54.381Z,21.80
2022-08-22T22:07:21.510Z,21.80
2022-08-22T22:10:00.230Z,21.80
2022-08-22T22:12:27.180Z,21.80
2022-08-22T22:14:54.489Z,21.70
2022-08-22T22:17:21.489Z,21.70
2022-08-22T22:19:48.423Z,21.60
2022-08-22T22:22:16.351Z,21.60
2022-08-22T22:24:43.259Z,21.60
2022-08-22T22:27:14.906Z,21.50
2022-08-22T22:29:43.832Z,21.50
2022-08-22T22:32:10.899Z,21.50
2022-08-22T22:35:06.911Z,21.50
2022-08-22T22:41:42.117Z,21.50
2022-08-22T22:47:38.425Z,21.40
2022-08-22T22:50:48.891Z,21.40
2022-08-22T22:53:19.915Z,21.40
2022-08-22T22:56:58.531Z,21.30
2022-08-22T22:59:53.053Z,21.30
2022-08-22T23:02:34.919Z,21.30
2022-08-22T23:08:14.159Z,21.20
2022-08-22T23:10:41.145Z,21.10
2022-08-22T23:13:08.047Z,21.10
2022-08-22T23:15:34.951Z,21.10
2022-08-22T23:18:02.471Z,21.00
2022-08-22T23:20:35.272Z,21.00
2022-08-22T23:23:02.216Z,21.00
2022-08-22T23:25:29.369Z,21.00
2022-08-22T23:27:57.416Z,20.90
2022-08-22T23:30:24.314Z,20.90
2022-08-22T23:32:51.168Z,20.80
2022-08-22T23:35:18.161Z,20.80
2022-08-22T23:37:45.108Z,20.80
2022-08-22T23:40:12.093Z,20.70
2022-08-22T23:42:39.192Z,20.70
2022-08-22T23:45:14.741Z,20.70
2022-08-22T23:47:41.561Z,20.70
2022-08-22T23:50:08.728Z,20.70
2022-08-22T23:52:41.445Z,20.70
2022-08-22T23:55:08.815Z,20.70
2022-08-22T23:57:36.078Z,20.60
